Ana Sayfa
METAR-TAF:

METAR-TAF

Havaalanları :

Cape Newenham, Alaska, Amerika Birleşik Devletleri

Enlem: 58-39N, Boylam: 162-04W, yükseklik: 165 m

Güncel hava durumu gözlemi

Rapor saat 05:55 UTC de 1 saat ve 9 dakika önce yapıldı.
Rüzgar kuzey/kuzeybatıdan 7 kt, kuzeybatı ve kuzeydoğu arasında değişken
Sıcaklık 5°C
Nem 81%
Basınç 1012 hPa
Görüş mesafesi: 16.1 km
Açık gökyüzü

METAR: PAEH 270555Z AUTO 34007KT 310V050 10SM CLR 05/02 A2989 RMK AO2 SLP129 T00500022 10058 20036 52002

Saat: 23:04 (07:04 UTC)


TAF: eksik

4.000'den fazla havaalanı için hava durumu gözlemleri ve tahminleri (METAR ve TAF raporları).

Kullanılabilir istasyonlar harita üzerinde sarı ve kırmızı noktalarla gösterilir.

İstasyonun adını görmek için fareyi noktanın üzerinde gezdirin.

Sonrasında hava gözlem ve tahminlerini görmek için tıklayın.

Haritayı değiştirmek için: yaklaştırmak için siyah artı işaretli yeşil düğmeye ve uzaklaştırmak için de eksi işaretli düğmeye hızla tıklayın; bitişik haritalar için yeşil okları kullanın.


METAR-TAF: